createdAt,value
2018-04-24T00:00:06.168Z,0
2018-04-24T00:01:05.930Z,0
2018-04-24T00:03:06.494Z,0
2018-04-24T00:04:06.202Z,0
2018-04-24T00:05:06.280Z,0
2018-04-24T00:06:21.009Z,0
2018-04-24T00:07:06.683Z,0
2018-04-24T00:08:06.346Z,0
2018-04-24T00:09:06.373Z,0
2018-04-24T00:10:06.389Z,0
2018-04-24T00:11:06.151Z,0
2018-04-24T00:12:06.435Z,0
2018-04-24T00:13:06.720Z,0
2018-04-24T00:14:06.738Z,0
2018-04-24T00:15:21.417Z,0
2018-04-24T00:16:06.789Z,0
2018-04-24T00:17:06.545Z,0
2018-04-24T00:18:06.310Z,0
2018-04-24T00:19:06.590Z,0
2018-04-24T00:21:06.636Z,0
2018-04-24T00:22:06.653Z,0
2018-04-24T00:23:36.255Z,0
2018-04-24T00:24:06.703Z,0
2018-04-24T00:25:06.727Z,0
2018-04-24T00:26:06.559Z,0
2018-04-24T00:27:07.028Z,0
2018-04-24T00:28:07.053Z,0
2018-04-24T00:29:07.088Z,0
2018-04-24T00:30:06.578Z,0
2018-04-24T00:32:07.140Z,0
2018-04-24T00:33:06.901Z,0
2018-04-24T00:34:06.921Z,0
2018-04-24T00:35:06.942Z,0
2018-04-24T00:36:21.628Z,0
2018-04-24T00:37:06.995Z,0
2018-04-24T00:38:06.755Z,0
2018-04-24T00:39:21.953Z,0
2018-04-24T00:40:07.318Z,0
2018-04-24T00:41:07.337Z,0
2018-04-24T00:42:07.105Z,0
2018-04-24T00:44:06.885Z,0
2018-04-24T00:45:07.176Z,0
2018-04-24T00:46:06.926Z,0
2018-04-24T00:47:07.468Z,0
2018-04-24T00:48:07.229Z,0
2018-04-24T00:49:07.590Z,0
2018-04-24T00:50:07.273Z,0
2018-04-24T00:51:07.559Z,0
2018-04-24T00:53:07.079Z,0
2018-04-24T00:54:22.024Z,0
2018-04-24T00:55:22.042Z,0
2018-04-24T00:57:07.691Z,0
2018-04-24T00:58:07.194Z,0
2018-04-24T00:59:07.475Z,0
2018-04-24T01:00:07.498Z,0
2018-04-24T01:01:22.512Z,0
2018-04-24T01:02:07.534Z,0
2018-04-24T01:03:07.556Z,0
2018-04-24T01:04:21.989Z,0
2018-04-24T01:05:07.602Z,0
2018-04-24T01:06:07.625Z,0
2018-04-24T01:07:07.396Z,0
2018-04-24T01:08:07.666Z,0
2018-04-24T01:09:07.703Z,0
2018-04-24T01:10:08.070Z,0
2018-04-24T01:11:37.309Z,0
2018-04-24T01:12:22.677Z,0
2018-04-24T01:13:07.788Z,0
2018-04-24T01:14:08.066Z,0
2018-04-24T01:16:08.111Z,0
2018-04-24T01:18:07.625Z,0
2018-04-24T01:20:07.933Z,0
2018-04-24T01:21:08.220Z,0
2018-04-24T01:22:08.230Z,0
2018-04-24T01:23:07.736Z,0
2018-04-24T01:24:22.679Z,0
2018-04-24T01:25:08.038Z,0
2018-04-24T01:26:23.074Z,0
2018-04-24T01:28:08.367Z,0
2018-04-24T01:29:07.608Z,0
2018-04-24T01:30:07.888Z,0
2018-04-24T01:31:08.528Z,0
2018-04-24T01:32:08.453Z,0
2018-04-24T01:33:07.695Z,0
2018-04-24T01:34:08.496Z,0
2018-04-24T01:35:08.255Z,0
2018-04-24T01:36:08.019Z,0
2018-04-24T01:38:23.241Z,0
2018-04-24T01:39:08.349Z,0
2018-04-24T01:40:08.363Z,0
2018-04-24T01:41:08.648Z,0
2018-04-24T01:42:23.067Z,0
2018-04-24T01:44:08.454Z,0
2018-04-24T01:45:08.733Z,0
2018-04-24T01:46:08.760Z,0
2018-04-24T01:47:08.522Z,0
2018-04-24T01:48:23.458Z,0
2018-04-24T01:49:08.559Z,0
2018-04-24T01:50:08.847Z,0
2018-04-24T01:51:08.341Z,0
2018-04-24T01:52:08.627Z,0
2018-04-24T01:53:08.648Z,0
2018-04-24T01:54:08.935Z,0
2018-04-24T01:55:08.693Z,0
2018-04-24T01:56:23.755Z,0
2018-04-24T01:57:08.731Z,0
2018-04-24T01:58:23.673Z,0
2018-04-24T01:59:08.526Z,0
2018-04-24T02:00:08.797Z,0
2018-04-24T02:01:09.077Z,0
2018-04-24T02:02:08.942Z,0
2018-04-24T02:03:08.859Z,0
2018-04-24T02:04:08.890Z,0
2018-04-24T02:05:09.169Z,0
2018-04-24T02:06:08.670Z,0
2018-04-24T02:07:23.605Z,0
2018-04-24T02:08:08.711Z,0
2018-04-24T02:09:08.986Z,0
2018-04-24T02:10:09.087Z,0
2018-04-24T02:11:09.029Z,0
2018-04-24T02:12:09.310Z,0
2018-04-24T02:13:23.991Z,0
2018-04-24T02:14:23.753Z,0
2018-04-24T02:15:08.859Z,0
2018-04-24T02:16:09.403Z,0
2018-04-24T02:17:09.417Z,0
2018-04-24T02:19:09.201Z,0
2018-04-24T02:20:23.883Z,0
2018-04-24T02:21:23.977Z,0
2018-04-24T02:22:09.527Z,0
2018-04-24T02:23:09.549Z,0
2018-04-24T02:24:24.230Z,0
2018-04-24T02:25:09.896Z,0
2018-04-24T02:26:09.092Z,0
2018-04-24T02:27:09.373Z,0
2018-04-24T02:28:09.672Z,0
2018-04-24T02:29:09.163Z,0
2018-04-24T02:30:24.362Z,0
2018-04-24T02:31:09.464Z,0
2018-04-24T02:32:09.226Z,0
2018-04-24T02:33:24.440Z,0
2018-04-24T02:34:09.529Z,0
2018-04-24T02:35:09.292Z,0
2018-04-24T02:36:24.228Z,0
2018-04-24T02:37:24.256Z,0
2018-04-24T02:38:09.877Z,0
2018-04-24T02:39:09.897Z,0
2018-04-24T02:40:09.651Z,0
2018-04-24T02:41:24.335Z,0
2018-04-24T02:42:09.692Z,0
2018-04-24T02:43:09.720Z,0
2018-04-24T02:44:10.006Z,0
2018-04-24T02:45:10.019Z,0
2018-04-24T02:46:39.354Z,0
2018-04-24T02:47:10.063Z,0
2018-04-24T02:48:10.083Z,0
2018-04-24T02:50:24.264Z,0
2018-04-24T02:51:09.627Z,0
2018-04-24T02:52:10.164Z,0
2018-04-24T02:53:10.205Z,0
2018-04-24T02:54:24.612Z,0
2018-04-24T02:55:24.652Z,0
2018-04-24T02:56:09.995Z,0
2018-04-24T02:57:09.752Z,0
2018-04-24T02:58:10.307Z,0
2018-04-24T02:59:10.418Z,0
2018-04-24T03:00:25.010Z,0
2018-04-24T03:01:25.022Z,0
2018-04-24T03:02:10.214Z,0
2018-04-24T03:03:10.151Z,0
2018-04-24T03:04:10.422Z,0
2018-04-24T03:05:10.457Z,0
2018-04-24T03:06:10.204Z,0
2018-04-24T03:07:10.501Z,0
2018-04-24T03:08:10.255Z,0
2018-04-24T03:09:10.536Z,0
2018-04-24T03:10:10.552Z,0
2018-04-24T03:11:10.674Z,4
2018-04-24T03:12:10.339Z,4
2018-04-24T03:13:25.018Z,0
2018-04-24T03:14:10.635Z,0
2018-04-24T03:15:10.400Z,4
2018-04-24T03:17:10.436Z,4
2018-04-24T03:18:10.717Z,4
2018-04-24T03:19:10.745Z,8
2018-04-24T03:20:10.769Z,8
2018-04-24T03:21:10.779Z,12
2018-04-24T03:22:10.541Z,8
2018-04-24T03:23:10.567Z,12
2018-04-24T03:24:10.592Z,12
2018-04-24T03:26:10.886Z,20
2018-04-24T03:27:10.919Z,20
2018-04-24T03:28:10.933Z,28
2018-04-24T03:29:10.690Z,32
2018-04-24T03:30:10.721Z,36
2018-04-24T03:32:10.759Z,44
2018-04-24T03:33:25.792Z,52
2018-04-24T03:34:10.800Z,56
2018-04-24T03:35:10.617Z,60
2018-04-24T03:36:25.495Z,68
2018-04-24T03:37:11.116Z,76
2018-04-24T03:38:10.624Z,88
2018-04-24T03:39:11.169Z,96
2018-04-24T03:40:11.185Z,112
2018-04-24T03:41:25.901Z,128
2018-04-24T03:42:11.267Z,144
2018-04-24T03:43:25.643Z,156
2018-04-24T03:44:11.016Z,168
2018-04-24T03:45:11.287Z,184
2018-04-24T03:46:10.787Z,204
2018-04-24T03:47:11.067Z,224
2018-04-24T03:48:11.347Z,248
2018-04-24T03:49:40.686Z,296
2018-04-24T03:50:11.390Z,308
2018-04-24T03:51:11.412Z,340
2018-04-24T03:52:11.441Z,376
2018-04-24T03:53:11.452Z,412
2018-04-24T03:54:25.611Z,460
2018-04-24T03:55:11.502Z,484
2018-04-24T03:56:10.997Z,528
2018-04-24T03:57:11.591Z,576
2018-04-24T03:58:26.316Z,644
2018-04-24T03:59:11.577Z,696
2018-04-24T04:00:11.604Z,784
2018-04-24T04:02:26.300Z,1016
2018-04-24T04:03:11.664Z,1092
2018-04-24T04:05:26.102Z,1304
2018-04-24T04:07:11.754Z,1440
2018-04-24T04:09:11.790Z,1616
2018-04-24T04:10:11.808Z,1736
2018-04-24T04:11:11.570Z,1868
2018-04-24T04:12:11.851Z,1996
2018-04-24T04:13:11.889Z,2088
2018-04-24T04:14:26.288Z,2176
2018-04-24T04:15:11.922Z,2264
2018-04-24T04:16:11.672Z,2396
2018-04-24T04:17:11.433Z,2508
2018-04-24T04:18:11.977Z,2624
2018-04-24T04:19:11.995Z,2640
2018-04-24T04:20:11.493Z,2584
2018-04-24T04:21:41.352Z,2704
2018-04-24T04:22:12.068Z,2840
2018-04-24T04:24:12.100Z,3116
2018-04-24T04:25:11.601Z,3252
2018-04-24T04:26:12.144Z,3276
2018-04-24T04:27:12.223Z,2996
2018-04-24T04:28:12.188Z,2728
2018-04-24T04:29:12.205Z,2616
2018-04-24T04:30:12.233Z,2588
2018-04-24T04:32:12.270Z,2584
2018-04-24T04:33:12.043Z,2668
2018-04-24T04:34:11.789Z,2664
2018-04-24T04:35:26.988Z,2452
2018-04-24T04:36:26.831Z,2288
2018-04-24T04:37:12.478Z,2176
2018-04-24T04:38:12.132Z,2028
2018-04-24T04:39:12.451Z,1972
2018-04-24T04:40:26.886Z,1916
2018-04-24T04:41:12.222Z,1844
2018-04-24T04:42:11.960Z,1748
2018-04-24T04:43:11.980Z,1696
2018-04-24T04:44:12.260Z,1700
2018-04-24T04:45:12.645Z,1868
2018-04-24T04:46:12.571Z,2240
2018-04-24T04:47:12.598Z,2800
2018-04-24T04:49:12.648Z,3320
2018-04-24T04:50:27.049Z,3204
2018-04-24T04:51:12.149Z,3456
2018-04-24T04:52:12.696Z,4040
2018-04-24T04:54:12.732Z,5164
2018-04-24T04:55:12.772Z,5720
2018-04-24T04:56:12.710Z,6256
2018-04-24T04:57:12.277Z,6952
2018-04-24T04:58:12.817Z,6168
2018-04-24T04:59:12.579Z,5892
2018-04-24T05:00:27.518Z,5492
2018-04-24T05:01:12.897Z,6132
2018-04-24T05:02:12.483Z,5320
2018-04-24T05:03:12.933Z,5456
2018-04-24T05:04:12.692Z,5404
2018-04-24T05:05:13.009Z,5248
2018-04-24T05:06:12.740Z,5324
2018-04-24T05:07:13.013Z,5456
2018-04-24T05:08:27.764Z,5136
2018-04-24T05:09:12.817Z,5068
2018-04-24T05:10:13.073Z,4832
2018-04-24T05:11:12.840Z,4340
2018-04-24T05:12:13.030Z,4032
2018-04-24T05:13:12.879Z,3932
2018-04-24T05:14:12.904Z,3892
2018-04-24T05:15:12.971Z,3848
2018-04-24T05:16:13.202Z,3784
2018-04-24T05:17:13.235Z,3684
2018-04-24T05:18:13.246Z,3536
2018-04-24T05:20:12.932Z,3188
2018-04-24T05:21:13.383Z,3080
2018-04-24T05:22:13.439Z,3008
2018-04-24T05:23:13.359Z,2956
2018-04-24T05:24:42.696Z,2920
2018-04-24T05:25:13.400Z,2932
2018-04-24T05:26:13.418Z,2964
2018-04-24T05:28:13.463Z,2952
2018-04-24T05:29:13.489Z,2924
2018-04-24T05:30:28.166Z,2864
2018-04-24T05:31:28.187Z,2804
2018-04-24T05:32:13.300Z,2760
2018-04-24T05:33:13.578Z,2744
2018-04-24T05:34:13.598Z,2780
2018-04-24T05:35:13.655Z,2868
2018-04-24T05:36:13.636Z,2980
2018-04-24T05:37:13.403Z,3104
2018-04-24T05:38:13.423Z,3248
2018-04-24T05:39:28.359Z,3384
2018-04-24T05:40:43.042Z,3596
2018-04-24T05:41:13.493Z,3668
2018-04-24T05:42:13.557Z,3632
2018-04-24T05:44:13.808Z,3852
2018-04-24T05:45:13.625Z,4024
2018-04-24T05:46:13.648Z,4400
2018-04-24T05:47:28.534Z,5024
2018-04-24T05:48:13.894Z,5412
2018-04-24T05:49:13.969Z,6072
2018-04-24T05:50:28.341Z,6836
2018-04-24T05:51:28.624Z,6540
2018-04-24T05:52:28.645Z,5660
2018-04-24T05:53:14.163Z,5008
2018-04-24T05:54:13.768Z,4380
2018-04-24T05:55:14.140Z,4196
2018-04-24T05:56:43.389Z,4228
2018-04-24T05:57:14.095Z,4284
2018-04-24T05:58:13.867Z,4364
2018-04-24T05:59:14.134Z,4588
2018-04-24T06:00:13.641Z,5024
2018-04-24T06:01:14.184Z,5452
2018-04-24T06:02:14.202Z,5816
2018-04-24T06:03:14.563Z,5940
2018-04-24T06:04:14.244Z,5852
2018-04-24T06:05:14.272Z,5680
2018-04-24T06:06:14.291Z,5656
2018-04-24T06:07:14.312Z,5616
2018-04-24T06:08:14.339Z,5772
2018-04-24T06:09:14.096Z,5668
2018-04-24T06:10:14.400Z,5564
2018-04-24T06:11:29.060Z,5704
2018-04-24T06:12:28.823Z,5788
2018-04-24T06:13:14.448Z,5800
2018-04-24T06:14:13.952Z,5756
2018-04-24T06:15:14.782Z,5848
2018-04-24T06:16:14.518Z,6048
2018-04-24T06:17:14.537Z,6204
2018-04-24T06:18:29.216Z,6340
2018-04-24T06:19:14.589Z,6400
2018-04-24T06:20:14.445Z,6224
2018-04-24T06:21:29.021Z,6188
2018-04-24T06:22:14.646Z,6332
2018-04-24T06:23:14.707Z,6408
2018-04-24T06:24:29.434Z,6664
2018-04-24T06:25:14.451Z,7088
2018-04-24T06:26:14.739Z,7680
2018-04-24T06:28:14.841Z,8436
2018-04-24T06:29:14.810Z,9644
2018-04-24T06:30:14.615Z,10484
2018-04-24T06:31:14.849Z,13208
2018-04-24T06:32:29.527Z,12984
2018-04-24T06:33:14.891Z,11956
2018-04-24T06:34:14.657Z,12512
2018-04-24T06:35:29.607Z,16480
2018-04-24T06:36:14.966Z,18112
2018-04-24T06:37:14.979Z,18432
2018-04-24T06:38:14.746Z,23360
2018-04-24T06:39:14.774Z,26688
2018-04-24T06:40:15.057Z,26272
2018-04-24T06:41:14.814Z,26592
2018-04-24T06:42:14.930Z,28064
2018-04-24T06:43:29.517Z,25792
2018-04-24T06:44:14.622Z,27680
2018-04-24T06:45:29.565Z,23680
2018-04-24T06:46:14.950Z,25280
2018-04-24T06:47:15.268Z,21408
2018-04-24T06:49:15.265Z,13304
2018-04-24T06:50:29.437Z,13756
2018-04-24T06:51:15.309Z,15668
2018-04-24T06:52:15.381Z,17344
2018-04-24T06:53:15.356Z,19648
2018-04-24T06:54:15.136Z,22528
2018-04-24T06:55:15.157Z,27008
2018-04-24T06:56:15.179Z,27296
2018-04-24T06:57:15.273Z,34688
2018-04-24T06:58:15.226Z,33376
2018-04-24T06:59:29.917Z,27968
2018-04-24T07:00:15.530Z,27104
2018-04-24T07:01:29.952Z,21280
2018-04-24T07:02:29.719Z,51200
2018-04-24T07:05:15.665Z,66592
2018-04-24T07:06:15.683Z,66464
2018-04-24T07:07:30.363Z,66624
2018-04-24T07:08:15.725Z,67072
2018-04-24T07:09:15.751Z,65536
2018-04-24T07:10:15.777Z,65664
2018-04-24T07:11:15.807Z,66752
2018-04-24T07:12:15.837Z,66176
2018-04-24T07:13:15.860Z,69376
2018-04-24T07:14:15.625Z,67520
2018-04-24T07:15:45.281Z,67104
2018-04-24T07:16:15.680Z,67616
2018-04-24T07:17:15.706Z,68032
2018-04-24T07:18:15.555Z,69440
2018-04-24T07:20:15.841Z,66464
2018-04-24T07:21:15.571Z,64032
2018-04-24T07:22:16.406Z,65632
2018-04-24T07:23:16.147Z,64192
2018-04-24T07:24:16.168Z,64640
2018-04-24T07:25:30.863Z,61088
2018-04-24T07:26:16.225Z,56928
2018-04-24T07:27:15.806Z,53728
2018-04-24T07:28:30.694Z,48832
2018-04-24T07:29:16.062Z,47712
2018-04-24T07:30:15.840Z,48576
2018-04-24T07:31:45.700Z,44032
2018-04-24T07:32:16.412Z,45984
2018-04-24T07:33:16.187Z,50912
2018-04-24T07:34:16.213Z,49504
2018-04-24T07:35:16.244Z,52320
2018-04-24T07:36:16.538Z,54944
2018-04-24T07:37:30.963Z,54496
2018-04-24T07:38:31.252Z,53856
2018-04-24T07:39:16.363Z,54528
2018-04-24T07:40:16.653Z,52416
2018-04-24T07:41:16.261Z,52544
2018-04-24T07:43:16.240Z,50336
2018-04-24T07:44:16.518Z,50560
2018-04-24T07:45:16.814Z,51648
2018-04-24T07:46:31.667Z,51712
2018-04-24T07:47:16.882Z,55808
2018-04-24T07:48:31.298Z,52864
2018-04-24T07:49:16.926Z,53280
2018-04-24T07:50:16.959Z,38624
2018-04-24T07:51:16.989Z,49920
2018-04-24T07:52:31.682Z,42112
2018-04-24T07:53:17.065Z,46176
2018-04-24T07:54:16.823Z,49888
2018-04-24T07:56:17.150Z,55008
2018-04-24T07:57:17.020Z,54016
2018-04-24T07:58:17.208Z,52128
2018-04-24T07:59:17.331Z,55552
2018-04-24T08:00:31.928Z,54560
2018-04-24T08:01:17.305Z,55712
2018-04-24T08:02:17.412Z,53792
2018-04-24T08:03:17.416Z,53728
2018-04-24T08:04:17.391Z,51488
2018-04-24T08:05:17.431Z,51328
2018-04-24T08:06:17.199Z,50272
2018-04-24T08:07:32.145Z,46016
2018-04-24T08:08:32.263Z,49088
2018-04-24T08:09:32.206Z,52704
2018-04-24T08:10:32.238Z,50880
2018-04-24T08:11:17.613Z,48288
2018-04-24T08:12:17.648Z,47072
2018-04-24T08:13:17.413Z,40800
2018-04-24T08:14:17.728Z,39168
2018-04-24T08:15:17.743Z,39680
2018-04-24T08:16:17.789Z,43424
2018-04-24T08:17:17.803Z,41440
2018-04-24T08:18:47.150Z,48864
2018-04-24T08:20:17.889Z,48320
2018-04-24T08:21:17.661Z,48768
2018-04-24T08:22:17.958Z,49088
2018-04-24T08:23:17.988Z,47648
2018-04-24T08:24:32.676Z,43808
2018-04-24T08:25:18.070Z,41120
2018-04-24T08:26:18.097Z,40992
2018-04-24T08:28:18.145Z,37856
2018-04-24T08:29:18.167Z,39200
2018-04-24T08:30:18.300Z,42976
2018-04-24T08:31:18.239Z,43040
2018-04-24T08:32:18.263Z,45568
2018-04-24T08:33:32.960Z,46784
2018-04-24T08:34:32.989Z,46368
2018-04-24T08:35:18.357Z,42624
2018-04-24T08:36:18.391Z,36736
2018-04-24T08:37:18.412Z,37120
2018-04-24T08:39:18.478Z,37984
2018-04-24T08:40:33.169Z,36512
2018-04-24T08:41:18.541Z,38336
2018-04-24T08:42:18.308Z,36448
2018-04-24T08:43:18.600Z,33824
2018-04-24T08:44:18.709Z,32640
2018-04-24T08:45:18.402Z,30496
2018-04-24T08:46:18.518Z,30112
2018-04-24T08:47:18.723Z,26880
2018-04-24T08:48:18.768Z,26304
2018-04-24T08:49:18.785Z,25920
2018-04-24T08:50:48.132Z,24064
2018-04-24T08:51:18.585Z,23136
2018-04-24T08:52:18.877Z,21440
2018-04-24T08:53:18.646Z,21888
2018-04-24T08:54:18.677Z,19712
2018-04-24T08:55:18.448Z,18592
2018-04-24T08:56:19.029Z,17536
2018-04-24T08:57:18.762Z,16832
2018-04-24T08:58:19.056Z,16896
2018-04-24T08:59:18.673Z,16388
2018-04-24T09:00:18.866Z,17792
2018-04-24T09:01:33.286Z,23648
2018-04-24T09:02:19.167Z,18432
2018-04-24T09:03:33.857Z,16672
2018-04-24T09:04:19.229Z,15544
2018-04-24T09:05:18.733Z,14828
2018-04-24T09:06:33.685Z,16200
2018-04-24T09:07:33.975Z,16864
2018-04-24T09:08:19.343Z,17280
2018-04-24T09:09:19.367Z,16960
2018-04-24T09:10:19.397Z,16188
2018-04-24T09:11:19.420Z,15820
2018-04-24T09:12:19.193Z,16500
2018-04-24T09:13:34.147Z,15972
2018-04-24T09:14:18.991Z,15792
2018-04-24T09:15:19.541Z,14768
2018-04-24T09:16:33.965Z,13636
2018-04-24T09:17:19.077Z,13416
2018-04-24T09:18:34.034Z,12804
2018-04-24T09:19:19.389Z,12384
2018-04-24T09:20:19.675Z,12148
2018-04-24T09:21:49.021Z,12132
2018-04-24T09:22:19.478Z,12020
2018-04-24T09:23:19.760Z,11432
2018-04-24T09:24:19.780Z,11312
2018-04-24T09:25:19.808Z,11800
2018-04-24T09:26:19.840Z,12304
2018-04-24T09:27:20.186Z,12804
2018-04-24T09:28:19.893Z,13168
2018-04-24T09:29:34.317Z,14964
2018-04-24T09:30:19.946Z,15176
2018-04-24T09:31:19.972Z,14448
2018-04-24T09:32:34.658Z,13672
2018-04-24T09:33:20.031Z,14056
2018-04-24T09:34:19.532Z,14276
2018-04-24T09:35:20.083Z,15060
2018-04-24T09:36:20.107Z,14228
2018-04-24T09:37:20.133Z,12800
2018-04-24T09:39:20.189Z,10728
2018-04-24T09:40:19.958Z,10272
2018-04-24T09:41:19.977Z,9736
2018-04-24T09:42:20.265Z,9624
2018-04-24T09:44:20.329Z,8972
2018-04-24T09:45:20.138Z,8128
2018-04-24T09:46:20.369Z,7296
2018-04-24T09:47:19.922Z,6828
2018-04-24T09:48:20.425Z,6284
2018-04-24T09:49:20.189Z,6372
2018-04-24T09:50:20.225Z,6892
2018-04-24T09:51:35.218Z,7824
2018-04-24T09:52:35.190Z,8156
2018-04-24T09:53:34.956Z,7972
2018-04-24T09:54:34.981Z,7688
2018-04-24T09:55:20.614Z,7724
2018-04-24T09:56:20.118Z,8224
2018-04-24T09:57:20.399Z,9396
2018-04-24T09:58:20.720Z,11224
2018-04-24T09:59:20.708Z,12664
2018-04-24T10:00:20.737Z,13820
2018-04-24T10:01:35.428Z,15768
2018-04-24T10:02:21.027Z,18656
2018-04-24T10:03:20.553Z,16832
2018-04-24T10:04:20.853Z,16152
2018-04-24T10:05:20.875Z,15500
2018-04-24T10:06:20.904Z,16220
2018-04-24T10:07:20.659Z,14912
2018-04-24T10:08:20.942Z,14052
2018-04-24T10:09:35.376Z,12120
2018-04-24T10:12:20.792Z,11764
2018-04-24T10:13:21.099Z,12524
2018-04-24T10:14:20.864Z,13160
2018-04-24T10:15:20.875Z,13116
2018-04-24T10:16:20.903Z,12932
2018-04-24T10:17:20.924Z,12936
2018-04-24T10:18:21.205Z,12700
2018-04-24T10:19:21.240Z,12484
2018-04-24T10:20:21.267Z,11928
2018-04-24T10:21:21.283Z,11520
2018-04-24T10:22:21.316Z,11364
2018-04-24T10:23:21.337Z,11452
2018-04-24T10:24:21.379Z,12028
2018-04-24T10:26:21.418Z,12528
2018-04-24T10:27:36.184Z,11888
2018-04-24T10:28:21.207Z,11332
2018-04-24T10:29:21.492Z,10992
2018-04-24T10:30:21.526Z,11008
2018-04-24T10:31:21.546Z,11180
2018-04-24T10:32:21.572Z,10616
2018-04-24T10:33:21.599Z,9992
2018-04-24T10:34:21.620Z,9436
2018-04-24T10:35:21.646Z,9268
2018-04-24T10:36:21.672Z,9164
2018-04-24T10:37:21.492Z,8968
2018-04-24T10:38:21.721Z,9072
2018-04-24T10:39:21.751Z,8796
2018-04-24T10:40:36.433Z,8428
2018-04-24T10:41:36.459Z,8664
2018-04-24T10:42:21.827Z,9104
2018-04-24T10:43:21.856Z,9628
2018-04-24T10:44:21.877Z,10788
2018-04-24T10:45:21.651Z,11712
2018-04-24T10:46:21.930Z,12100
2018-04-24T10:47:21.955Z,12572
2018-04-24T10:48:21.718Z,13332
2018-04-24T10:49:22.005Z,13788
2018-04-24T10:50:22.034Z,14936
2018-04-24T10:52:22.082Z,15364
2018-04-24T10:53:22.110Z,15092
2018-04-24T10:54:36.796Z,15244
2018-04-24T10:55:22.164Z,15276
2018-04-24T10:56:51.518Z,14972
2018-04-24T10:57:22.216Z,14836
2018-04-24T10:58:22.238Z,14360
2018-04-24T10:59:22.520Z,14232
2018-04-24T11:00:22.288Z,14056
2018-04-24T11:01:22.062Z,13844
2018-04-24T11:02:22.115Z,13192
2018-04-24T11:03:22.369Z,12416
2018-04-24T11:04:22.138Z,11364
2018-04-24T11:05:22.426Z,10340
2018-04-24T11:06:22.182Z,9536
2018-04-24T11:07:22.212Z,9008
2018-04-24T11:08:21.978Z,8752
2018-04-24T11:09:23.522Z,8564
2018-04-24T11:10:22.025Z,8484
2018-04-24T11:11:22.052Z,8560
2018-04-24T11:12:22.599Z,8788
2018-04-24T11:13:22.359Z,8964
2018-04-24T11:14:22.650Z,9260
2018-04-24T11:15:22.672Z,9716
2018-04-24T11:16:22.713Z,10096
2018-04-24T11:17:22.726Z,10168
2018-04-24T11:19:22.774Z,8648
2018-04-24T11:20:22.552Z,7816
2018-04-24T11:22:22.847Z,6840
2018-04-24T11:23:22.619Z,6612
2018-04-24T11:24:22.912Z,6204
2018-04-24T11:25:22.409Z,6064
2018-04-24T11:26:22.955Z,5784
2018-04-24T11:27:22.987Z,5848
2018-04-24T11:28:37.662Z,6140
2018-04-24T11:29:23.031Z,6344
2018-04-24T11:30:22.892Z,6684
2018-04-24T11:31:23.085Z,6628
2018-04-24T11:32:22.586Z,6508
2018-04-24T11:34:23.185Z,7016
2018-04-24T11:35:23.181Z,7312
2018-04-24T11:36:22.947Z,7496
2018-04-24T11:37:22.973Z,7828
2018-04-24T11:38:23.258Z,8348
2018-04-24T11:39:23.304Z,8788
2018-04-24T11:41:23.550Z,9572
2018-04-24T11:42:38.031Z,9324
2018-04-24T11:43:23.126Z,9256
2018-04-24T11:44:37.806Z,9620
2018-04-24T11:45:23.431Z,9672
2018-04-24T11:46:23.462Z,9764
2018-04-24T11:47:23.225Z,9956
2018-04-24T11:48:23.250Z,10168
2018-04-24T11:49:38.268Z,10132
2018-04-24T11:50:23.564Z,10128
2018-04-24T11:51:23.348Z,10436
2018-04-24T11:52:23.781Z,10968
2018-04-24T11:53:23.377Z,11456
2018-04-24T11:54:37.798Z,11912
2018-04-24T11:56:23.731Z,11928
2018-04-24T11:57:23.506Z,11780
2018-04-24T11:58:38.417Z,11664
2018-04-24T11:59:23.523Z,11508
2018-04-24T12:00:53.127Z,10928
2018-04-24T12:02:23.601Z,10492
2018-04-24T12:03:23.884Z,10488
2018-04-24T12:04:23.909Z,10724
2018-04-24T12:05:23.937Z,10812
2018-04-24T12:06:23.967Z,10676
2018-04-24T12:07:38.649Z,10460
2018-04-24T12:08:24.024Z,10456
2018-04-24T12:09:23.775Z,10168
2018-04-24T12:10:24.060Z,9832
2018-04-24T12:11:24.086Z,9520
2018-04-24T12:12:23.857Z,9004
2018-04-24T12:13:23.623Z,8684
2018-04-24T12:15:24.193Z,9228
2018-04-24T12:16:53.531Z,9536
2018-04-24T12:17:38.905Z,9364
2018-04-24T12:18:24.011Z,9252
2018-04-24T12:19:23.775Z,9048
2018-04-24T12:20:24.312Z,8984
2018-04-24T12:21:24.081Z,8992
2018-04-24T12:22:24.103Z,9072
2018-04-24T12:23:39.049Z,9120
2018-04-24T12:24:24.009Z,9032
2018-04-24T12:25:24.184Z,8916
2018-04-24T12:27:24.486Z,9044
2018-04-24T12:28:39.174Z,9248
2018-04-24T12:29:39.200Z,9364
2018-04-24T12:31:53.909Z,9260
2018-04-24T12:32:24.359Z,9036
2018-04-24T12:34:24.672Z,8160
2018-04-24T12:35:39.099Z,7652
2018-04-24T12:36:24.467Z,7164
2018-04-24T12:37:39.402Z,7012
2018-04-24T12:38:39.167Z,6944
2018-04-24T12:39:24.531Z,6740
2018-04-24T12:40:24.820Z,5788
2018-04-24T12:41:24.842Z,5488
2018-04-24T12:42:24.867Z,4964
2018-04-24T12:43:24.632Z,4668
2018-04-24T12:44:24.656Z,5264
2018-04-24T12:45:25.071Z,5844
2018-04-24T12:46:24.966Z,6632
2018-04-24T12:47:24.992Z,7140
2018-04-24T12:48:24.757Z,7812
2018-04-24T12:49:25.042Z,7968
2018-04-24T12:50:25.065Z,8564
2018-04-24T12:51:25.092Z,9524
2018-04-24T12:53:29.842Z,10548
2018-04-24T12:54:39.825Z,10640
2018-04-24T12:55:25.188Z,10940
2018-04-24T12:56:25.216Z,11224
2018-04-24T12:57:24.981Z,11328
2018-04-24T12:58:25.011Z,11204
2018-04-24T12:59:25.302Z,10364
2018-04-24T13:00:25.326Z,9644
2018-04-24T13:01:25.080Z,9396
2018-04-24T13:02:25.375Z,8592
2018-04-24T13:03:54.735Z,7420
2018-04-24T13:04:25.162Z,7152
2018-04-24T13:05:39.838Z,6056
2018-04-24T13:06:25.461Z,5628
2018-04-24T13:07:25.488Z,5572
2018-04-24T13:08:25.514Z,5260
2018-04-24T13:09:25.580Z,4992
2018-04-24T13:10:39.965Z,5124
2018-04-24T13:11:25.069Z,4872
2018-04-24T13:12:25.095Z,5084
2018-04-24T13:13:25.637Z,5076
2018-04-24T13:14:25.425Z,4920
2018-04-24T13:15:25.169Z,4772
2018-04-24T13:17:25.478Z,4660
2018-04-24T13:18:25.793Z,4612
2018-04-24T13:19:55.106Z,4804
2018-04-24T13:20:25.820Z,4916
2018-04-24T13:21:25.841Z,4956
2018-04-24T13:22:25.341Z,4636
2018-04-24T13:23:40.026Z,4472
2018-04-24T13:24:25.442Z,4184
2018-04-24T13:25:26.054Z,3772
2018-04-24T13:26:40.359Z,3504
2018-04-24T13:27:25.986Z,3500
2018-04-24T13:28:25.750Z,3748
2018-04-24T13:29:25.775Z,3876
2018-04-24T13:30:25.539Z,3728
2018-04-24T13:31:26.022Z,3540
2018-04-24T13:32:26.104Z,3608
2018-04-24T13:33:25.611Z,3664
2018-04-24T13:34:25.894Z,4020
2018-04-24T13:35:40.842Z,4096
2018-04-24T13:36:25.942Z,3952
2018-04-24T13:37:25.711Z,4108
2018-04-24T13:38:25.996Z,4488
2018-04-24T13:39:26.271Z,4332
2018-04-24T13:40:26.300Z,4108
2018-04-24T13:41:26.336Z,4072
2018-04-24T13:42:41.007Z,4020
2018-04-24T13:43:26.396Z,4000
2018-04-24T13:44:26.401Z,4172
2018-04-24T13:45:26.160Z,4532
2018-04-24T13:46:26.451Z,4384
2018-04-24T13:47:26.210Z,4156
2018-04-24T13:48:41.152Z,3952
2018-04-24T13:49:26.522Z,4024
2018-04-24T13:50:26.281Z,4196
2018-04-24T13:51:55.883Z,4224
2018-04-24T13:52:26.591Z,4164
2018-04-24T13:53:26.611Z,4040
2018-04-24T13:54:26.384Z,4116
2018-04-24T13:55:26.565Z,3980
2018-04-24T13:56:26.166Z,3884
2018-04-24T13:57:41.369Z,4212
2018-04-24T13:58:26.735Z,4372
2018-04-24T13:59:26.496Z,4644
2018-04-24T14:00:26.600Z,4920
2018-04-24T14:01:41.471Z,5384
2018-04-24T14:02:26.839Z,5532
2018-04-24T14:03:26.854Z,5760
2018-04-24T14:04:26.627Z,6176
2018-04-24T14:05:26.908Z,6608
2018-04-24T14:06:41.588Z,7260
2018-04-24T14:08:26.715Z,7856
2018-04-24T14:09:26.752Z,8056
2018-04-24T14:10:26.774Z,8052
2018-04-24T14:11:27.051Z,7884
2018-04-24T14:12:26.971Z,7740
2018-04-24T14:13:41.493Z,7828
2018-04-24T14:14:26.857Z,7744
2018-04-24T14:15:26.890Z,7436
2018-04-24T14:16:26.906Z,7108
2018-04-24T14:17:26.671Z,7000
2018-04-24T14:18:27.218Z,6752
2018-04-24T14:20:27.269Z,6360
2018-04-24T14:21:27.543Z,6396
2018-04-24T14:22:41.710Z,6716
2018-04-24T14:23:27.075Z,6824
2018-04-24T14:24:27.372Z,6732
2018-04-24T14:25:27.384Z,6728
2018-04-24T14:26:27.159Z,6980
2018-04-24T14:27:27.176Z,7540
2018-04-24T14:28:27.195Z,8356